createdAt,value
2022-08-31T00:00:01.380Z,93571.94
2022-08-31T00:02:46.576Z,93579.97
2022-08-31T00:05:13.339Z,93575.50
2022-08-31T00:07:40.295Z,93594.25
2022-08-31T00:10:14.723Z,93592.63
2022-08-31T00:12:43.041Z,93604.84
2022-08-31T00:15:13.150Z,93613.16
2022-08-31T00:17:40.982Z,93604.59
2022-08-31T00:20:32.430Z,93603.38
2022-08-31T00:22:57.089Z,93602.31
2022-08-31T00:25:24.400Z,93599.97
2022-08-31T00:27:51.146Z,93609.13
2022-08-31T00:30:18.143Z,93599.84
2022-08-31T00:32:44.753Z,93599.81
2022-08-31T00:35:12.190Z,93601.94
2022-08-31T00:37:38.842Z,93609.66
2022-08-31T00:40:06.491Z,93602.38
2022-08-31T00:42:33.683Z,93578.59
2022-08-31T00:45:00.374Z,93601.88
2022-08-31T00:47:27.018Z,93607.16
2022-08-31T00:49:53.995Z,93582.94
2022-08-31T00:52:24.778Z,93590.63
2022-08-31T00:55:01.716Z,93602.81
2022-08-31T00:57:34.591Z,93606.06
2022-08-31T01:00:05.911Z,93600.81
2022-08-31T01:02:32.744Z,93608.59
2022-08-31T01:04:59.558Z,93599.56
2022-08-31T01:07:27.231Z,93588.09
2022-08-31T01:09:55.801Z,93586.94
2022-08-31T01:12:23.994Z,93591.28
2022-08-31T01:14:50.986Z,93594.97
2022-08-31T01:17:18.549Z,93575.28
2022-08-31T01:20:02.089Z,93588.56
2022-08-31T01:22:38.838Z,93567.97
2022-08-31T01:25:06.901Z,93591.16
2022-08-31T01:27:36.071Z,93578.13
2022-08-31T01:30:06.782Z,93581.50
2022-08-31T01:32:33.702Z,93573.06
2022-08-31T01:35:00.511Z,93551.78
2022-08-31T01:37:29.507Z,93566.66
2022-08-31T01:39:57.008Z,93576.97
2022-08-31T01:42:23.657Z,93583.56
2022-08-31T01:45:00.117Z,93582.19
2022-08-31T01:47:26.863Z,93572.53
2022-08-31T01:49:53.547Z,93580.56
2022-08-31T01:52:24.946Z,93585.97
2022-08-31T01:54:55.450Z,93595.72
2022-08-31T01:57:33.514Z,93581.06
2022-08-31T02:00:06.464Z,93576.88
2022-08-31T02:02:33.345Z,93592.13
2022-08-31T02:05:00.474Z,93602.44
2022-08-31T02:07:27.165Z,93595.88
2022-08-31T02:09:54.498Z,93596.97
2022-08-31T02:12:21.254Z,93590.03
2022-08-31T02:14:47.919Z,93591.00
2022-08-31T02:17:14.706Z,93584.63
2022-08-31T02:19:41.385Z,93597.84
2022-08-31T02:22:08.071Z,93597.75
2022-08-31T02:24:34.844Z,93574.69
2022-08-31T02:27:01.591Z,93577.16
2022-08-31T02:29:28.610Z,93572.75
2022-08-31T02:31:55.318Z,93564.88
2022-08-31T02:34:22.723Z,93582.16
2022-08-31T02:36:49.479Z,93590.41
2022-08-31T02:39:16.367Z,93580.56
2022-08-31T02:41:43.015Z,93594.88
2022-08-31T02:44:09.741Z,93590.22
2022-08-31T02:46:36.493Z,93570.50
2022-08-31T02:49:03.591Z,93596.09
2022-08-31T02:51:30.287Z,93593.34
2022-08-31T02:53:56.856Z,93580.28
2022-08-31T02:56:24.044Z,93592.41
2022-08-31T02:58:55.088Z,93567.88
2022-08-31T03:01:23.433Z,93586.56
2022-08-31T03:03:50.586Z,93580.16
2022-08-31T03:06:18.837Z,93584.63
2022-08-31T03:08:46.945Z,93561.13
2022-08-31T03:11:13.831Z,93578.69
2022-08-31T03:13:41.803Z,93592.06
2022-08-31T03:16:09.707Z,93584.59
2022-08-31T03:18:36.381Z,93590.81
2022-08-31T03:21:03.114Z,93557.59
2022-08-31T03:23:30.539Z,93578.03
2022-08-31T03:25:57.211Z,93565.63
2022-08-31T03:28:23.908Z,93543.63
2022-08-31T03:30:50.597Z,93555.88
2022-08-31T03:33:17.448Z,93552.19
2022-08-31T03:35:44.781Z,93559.41
2022-08-31T03:38:13.090Z,93565.78
2022-08-31T03:40:41.376Z,93547.50
2022-08-31T03:43:11.233Z,93553.41
2022-08-31T03:45:39.989Z,93531.03
2022-08-31T03:48:11.943Z,93550.59
2022-08-31T03:50:39.327Z,93556.84
2022-08-31T03:53:07.401Z,93559.06
2022-08-31T03:55:36.730Z,93551.56
2022-08-31T03:58:03.987Z,93540.69
2022-08-31T04:00:31.749Z,93554.81
2022-08-31T04:02:59.955Z,93548.66
2022-08-31T04:05:32.646Z,93559.34
2022-08-31T04:07:59.387Z,93560.31
2022-08-31T04:10:26.574Z,93566.75
2022-08-31T04:12:53.218Z,93569.00
2022-08-31T04:15:19.971Z,93568.03
2022-08-31T04:17:47.309Z,93567.41
2022-08-31T04:20:14.910Z,93573.78
2022-08-31T04:22:41.490Z,93560.25
2022-08-31T04:25:10.221Z,93570.69
2022-08-31T04:27:38.194Z,93570.69
2022-08-31T04:30:07.603Z,93572.47
2022-08-31T04:32:35.586Z,93576.09
2022-08-31T04:35:03.532Z,93569.22
2022-08-31T04:37:30.926Z,93581.69
2022-08-31T04:39:59.086Z,93552.25
2022-08-31T04:42:28.080Z,93574.41
2022-08-31T04:44:54.829Z,93563.75
2022-08-31T04:47:21.559Z,93550.44
2022-08-31T04:49:48.415Z,93575.00
2022-08-31T04:52:15.063Z,93572.09
2022-08-31T04:54:41.920Z,93573.59
2022-08-31T04:57:08.589Z,93542.03
2022-08-31T04:59:35.438Z,93575.94
2022-08-31T05:02:03.838Z,93566.47
2022-08-31T05:04:31.787Z,93575.03
2022-08-31T05:06:58.430Z,93573.63
2022-08-31T05:09:25.451Z,93575.47
2022-08-31T05:11:53.149Z,93562.19
2022-08-31T05:14:21.968Z,93573.69
2022-08-31T05:16:49.299Z,93567.78
2022-08-31T05:19:16.160Z,93565.22
2022-08-31T05:21:43.621Z,93562.97
2022-08-31T05:24:17.229Z,93573.78
2022-08-31T05:26:50.993Z,93570.75
2022-08-31T05:29:20.226Z,93569.25
2022-08-31T05:31:51.998Z,93566.72
2022-08-31T05:34:20.691Z,93580.19
2022-08-31T05:36:52.039Z,93574.13
2022-08-31T05:39:18.943Z,93574.78
2022-08-31T05:41:46.815Z,93585.72
2022-08-31T05:44:13.579Z,93527.03
2022-08-31T05:46:40.325Z,93578.63
2022-08-31T05:49:08.668Z,93584.63
2022-08-31T05:51:38.643Z,93585.59
2022-08-31T05:54:06.371Z,93570.94
2022-08-31T05:56:33.189Z,93584.63
2022-08-31T05:59:00.163Z,93578.38
2022-08-31T06:01:38.621Z,93564.75
2022-08-31T06:04:06.645Z,93573.78
2022-08-31T06:06:33.762Z,93583.09
2022-08-31T06:09:00.373Z,93565.47
2022-08-31T06:11:30.238Z,93582.22
2022-08-31T06:14:00.957Z,93583.75
2022-08-31T06:16:30.250Z,93585.22
2022-08-31T06:18:58.229Z,93580.69
2022-08-31T06:21:29.502Z,93582.34
2022-08-31T06:23:59.418Z,93584.44
2022-08-31T06:26:29.170Z,93583.81
2022-08-31T06:28:59.195Z,93588.97
2022-08-31T06:31:35.051Z,93585.94
2022-08-31T06:34:03.514Z,93582.84
2022-08-31T06:36:31.857Z,93593.34
2022-08-31T06:39:00.030Z,93608.72
2022-08-31T06:41:35.664Z,93606.31
2022-08-31T06:44:06.106Z,93607.88
2022-08-31T06:46:33.851Z,93609.94
2022-08-31T06:49:00.800Z,93615.09
2022-08-31T06:51:27.766Z,93608.06
2022-08-31T06:53:55.527Z,93611.38
2022-08-31T06:56:25.535Z,93622.22
2022-08-31T06:58:53.844Z,93616.56
2022-08-31T07:01:38.040Z,93614.13
2022-08-31T07:04:07.834Z,93616.00
2022-08-31T07:06:41.143Z,93614.47
2022-08-31T07:09:11.994Z,93615.50
2022-08-31T07:11:44.590Z,93612.63
2022-08-31T07:14:14.906Z,93612.06
2022-08-31T07:16:42.854Z,93613.56
2022-08-31T07:19:10.901Z,93607.63
2022-08-31T07:21:41.689Z,93610.91
2022-08-31T07:24:10.098Z,93610.91
2022-08-31T07:26:44.013Z,93604.25
2022-08-31T07:29:12.319Z,93588.06
2022-08-31T07:31:46.612Z,93594.13
2022-08-31T07:34:16.273Z,93606.34
2022-08-31T07:37:01.778Z,93593.91
2022-08-31T07:39:48.222Z,93600.97
2022-08-31T07:42:20.124Z,93611.00
2022-08-31T07:44:53.205Z,93612.13
2022-08-31T07:47:22.562Z,93626.91
2022-08-31T07:49:52.482Z,93626.47
2022-08-31T07:52:21.906Z,93617.88
2022-08-31T07:54:49.557Z,93618.69
2022-08-31T07:57:18.843Z,93623.69
2022-08-31T07:59:47.099Z,93627.13
2022-08-31T08:02:17.545Z,93624.00
2022-08-31T08:04:44.954Z,93618.44
2022-08-31T08:07:12.373Z,93610.28
2022-08-31T08:09:38.984Z,93619.22
2022-08-31T08:12:09.139Z,93610.16
2022-08-31T08:14:40.055Z,93602.47
2022-08-31T08:17:07.986Z,93608.00
2022-08-31T08:19:34.843Z,93604.06
2022-08-31T08:22:05.338Z,93607.72
2022-08-31T08:24:32.530Z,93601.00
2022-08-31T08:26:59.391Z,93576.00
2022-08-31T08:29:27.372Z,93580.09
2022-08-31T08:31:54.551Z,93594.03
2022-08-31T08:34:32.377Z,93603.13
2022-08-31T08:37:00.127Z,93583.00
2022-08-31T08:39:27.545Z,93600.88
2022-08-31T08:41:57.343Z,93600.41
2022-08-31T08:44:28.138Z,93598.88
2022-08-31T08:47:02.290Z,93590.69
2022-08-31T08:49:28.915Z,93588.56
2022-08-31T08:51:59.617Z,93570.63
2022-08-31T08:54:38.546Z,93584.56
2022-08-31T08:57:14.956Z,93592.03
2022-08-31T08:59:46.774Z,93582.53
2022-08-31T09:02:21.803Z,93580.72
2022-08-31T09:04:59.539Z,93583.41
2022-08-31T09:07:44.413Z,93585.50
2022-08-31T09:10:23.325Z,93592.44
2022-08-31T09:13:17.091Z,93581.31
2022-08-31T09:15:46.450Z,93584.41
2022-08-31T09:18:26.414Z,93587.44
2022-08-31T09:21:22.389Z,93592.00
2022-08-31T09:23:54.957Z,93593.03
2022-08-31T09:26:25.906Z,93584.19
2022-08-31T09:28:52.893Z,93560.84
2022-08-31T09:31:34.408Z,93588.44
2022-08-31T09:34:02.190Z,93591.06
2022-08-31T09:36:41.059Z,93574.66
2022-08-31T09:39:22.323Z,93570.38
2022-08-31T09:41:50.188Z,93573.31
2022-08-31T09:44:22.462Z,93570.41
2022-08-31T09:46:53.371Z,93569.44
2022-08-31T09:49:23.222Z,93566.38
2022-08-31T09:51:49.861Z,93563.84
2022-08-31T09:54:34.722Z,93558.63
2022-08-31T09:57:05.405Z,93555.97
2022-08-31T09:59:45.049Z,93543.06
2022-08-31T10:02:31.731Z,93546.63
2022-08-31T10:05:01.424Z,93551.50
2022-08-31T10:07:43.194Z,93547.44
2022-08-31T10:10:30.995Z,93545.16
2022-08-31T10:13:08.362Z,93540.75
2022-08-31T10:15:48.502Z,93536.91
2022-08-31T10:18:23.935Z,93546.22
2022-08-31T10:20:56.947Z,93549.41
2022-08-31T10:23:34.804Z,93547.94
2022-08-31T10:26:12.943Z,93543.03
2022-08-31T10:28:54.030Z,93531.91
2022-08-31T10:31:29.974Z,93559.41
2022-08-31T10:34:30.641Z,93558.13
2022-08-31T10:37:10.314Z,93556.81
2022-08-31T10:39:45.383Z,93555.72
2022-08-31T10:42:19.458Z,93551.25
2022-08-31T10:44:56.217Z,93547.53
2022-08-31T10:47:33.990Z,93542.34
2022-08-31T10:50:03.621Z,93528.16
2022-08-31T10:52:39.639Z,93535.19
2022-08-31T10:55:46.521Z,93541.03
2022-08-31T10:58:18.978Z,93533.59
2022-08-31T11:00:53.258Z,93527.59
2022-08-31T11:03:35.788Z,93524.00
2022-08-31T11:06:08.119Z,93510.00
2022-08-31T11:08:57.432Z,93515.66
2022-08-31T11:11:43.413Z,93505.31
2022-08-31T11:14:45.195Z,93506.06
2022-08-31T11:17:36.212Z,93505.81
2022-08-31T11:20:44.486Z,93498.50
2022-08-31T11:23:20.637Z,93495.91
2022-08-31T11:26:26.465Z,93497.66
2022-08-31T11:29:02.066Z,93491.69
2022-08-31T11:31:33.049Z,93498.19
2022-08-31T11:34:16.939Z,93494.38
2022-08-31T11:36:56.473Z,93489.47
2022-08-31T11:39:40.147Z,93492.66
2022-08-31T11:42:12.349Z,93490.13
2022-08-31T11:44:39.585Z,93498.38
2022-08-31T11:47:30.549Z,93491.03
2022-08-31T11:50:10.806Z,93487.97
2022-08-31T11:52:38.347Z,93489.59
2022-08-31T11:55:20.893Z,93487.91
2022-08-31T11:58:06.216Z,93488.34
2022-08-31T12:00:52.491Z,93477.06
2022-08-31T12:03:43.246Z,93482.78
2022-08-31T12:06:26.653Z,93486.75
2022-08-31T12:09:32.569Z,93472.63
2022-08-31T12:12:06.462Z,93474.03
2022-08-31T12:14:56.754Z,93474.13
2022-08-31T12:17:55.755Z,93456.34
2022-08-31T12:21:18.003Z,93479.25
2022-08-31T12:24:02.451Z,93450.81
2022-08-31T12:26:45.564Z,93471.56
2022-08-31T12:29:23.681Z,93481.69
2022-08-31T12:32:28.466Z,93489.88
2022-08-31T12:34:58.131Z,93488.03
2022-08-31T12:37:29.205Z,93494.31
2022-08-31T12:40:23.092Z,93483.97
2022-08-31T12:42:53.178Z,93482.16
2022-08-31T12:45:30.826Z,93478.28
2022-08-31T12:48:20.374Z,93485.38
2022-08-31T12:51:25.605Z,93467.03
2022-08-31T12:54:01.090Z,93447.78
2022-08-31T12:56:30.385Z,93447.16
2022-08-31T12:59:56.973Z,93461.25
2022-08-31T13:02:20.433Z,93442.63
2022-08-31T13:04:48.183Z,93440.81
2022-08-31T13:07:28.243Z,93423.09
2022-08-31T13:10:11.530Z,93439.31
2022-08-31T13:12:39.065Z,93440.00
2022-08-31T13:15:20.462Z,93443.22
2022-08-31T13:17:47.362Z,93431.34
2022-08-31T13:20:18.952Z,93440.63
2022-08-31T13:22:48.814Z,93427.78
2022-08-31T13:25:19.234Z,93426.38
2022-08-31T13:27:50.626Z,93423.94
2022-08-31T13:30:25.397Z,93408.50
2022-08-31T13:32:54.527Z,93393.22
2022-08-31T13:35:26.931Z,93414.78
2022-08-31T13:38:07.809Z,93409.25
2022-08-31T13:40:39.718Z,93441.31
2022-08-31T13:43:09.749Z,93428.25
2022-08-31T13:45:57.793Z,93436.63
2022-08-31T13:48:40.728Z,93445.44
2022-08-31T13:51:16.631Z,93444.63
2022-08-31T13:53:54.102Z,93447.56
2022-08-31T13:56:40.673Z,93439.34
2022-08-31T13:59:24.000Z,93439.06
2022-08-31T14:02:02.511Z,93452.00
2022-08-31T14:04:44.378Z,93444.81
2022-08-31T14:07:51.829Z,93442.84
2022-08-31T14:10:21.237Z,93431.31
2022-08-31T14:12:59.206Z,93435.53
2022-08-31T14:15:56.200Z,93427.69
2022-08-31T14:18:28.378Z,93434.69
2022-08-31T14:21:20.711Z,93430.56
2022-08-31T14:24:02.487Z,93429.81
2022-08-31T14:26:34.984Z,93419.31
2022-08-31T14:29:10.236Z,93432.59
2022-08-31T14:31:49.172Z,93426.66
2022-08-31T14:34:23.246Z,93437.63
2022-08-31T14:37:16.394Z,93419.19
2022-08-31T14:39:48.650Z,93439.91
2022-08-31T14:42:25.277Z,93438.69
2022-08-31T14:44:57.813Z,93445.03
2022-08-31T14:47:27.703Z,93440.84
2022-08-31T14:50:01.530Z,93444.88
2022-08-31T14:52:28.464Z,93427.50
2022-08-31T14:55:00.465Z,93427.00
2022-08-31T14:57:27.457Z,93396.06
2022-08-31T14:59:57.604Z,93428.03
2022-08-31T15:02:27.090Z,93433.09
2022-08-31T15:04:58.506Z,93430.31
2022-08-31T15:07:25.678Z,93413.56
2022-08-31T15:09:52.302Z,93402.66
2022-08-31T15:12:19.421Z,93430.31
2022-08-31T15:14:47.070Z,93434.16
2022-08-31T15:17:19.855Z,93433.78
2022-08-31T15:19:48.042Z,93395.16
2022-08-31T15:22:15.791Z,93423.69
2022-08-31T15:24:44.660Z,93407.84
2022-08-31T15:27:15.438Z,93414.66
2022-08-31T15:29:45.414Z,93421.44
2022-08-31T15:32:16.428Z,93411.47
2022-08-31T15:34:57.398Z,93425.72
2022-08-31T15:37:28.039Z,93422.00
2022-08-31T15:40:00.714Z,93410.94
2022-08-31T15:42:29.452Z,93418.56
2022-08-31T15:44:57.062Z,93392.69
2022-08-31T15:47:51.650Z,93415.94
2022-08-31T15:50:21.113Z,93402.38
2022-08-31T15:52:51.261Z,93394.50
2022-08-31T15:55:23.387Z,93391.53
2022-08-31T15:57:53.968Z,93374.34
2022-08-31T16:00:23.552Z,93389.34
2022-08-31T16:02:55.052Z,93377.81
2022-08-31T16:05:22.589Z,93391.59
2022-08-31T16:07:51.159Z,93394.44
2022-08-31T16:10:20.329Z,93379.41
2022-08-31T16:12:47.776Z,93381.09
2022-08-31T16:15:15.372Z,93374.56
2022-08-31T16:17:42.654Z,93371.00
2022-08-31T16:20:12.234Z,93365.13
2022-08-31T16:22:39.654Z,93375.84
2022-08-31T16:25:11.589Z,93381.44
2022-08-31T16:27:39.716Z,93374.69
2022-08-31T16:30:09.075Z,93371.91
2022-08-31T16:32:35.774Z,93375.63
2022-08-31T16:35:04.310Z,93383.72
2022-08-31T16:37:32.105Z,93391.19
2022-08-31T16:39:58.734Z,93372.75
2022-08-31T16:42:25.441Z,93387.75
2022-08-31T16:44:52.031Z,93391.97
2022-08-31T16:47:19.342Z,93381.09
2022-08-31T16:49:46.864Z,93375.78
2022-08-31T16:52:21.171Z,93398.09
2022-08-31T16:54:50.937Z,93390.75
2022-08-31T16:57:24.046Z,93388.59
2022-08-31T16:59:51.224Z,93385.16
2022-08-31T17:02:19.427Z,93383.59
2022-08-31T17:04:54.614Z,93380.31
2022-08-31T17:07:24.189Z,93379.19
2022-08-31T17:09:54.932Z,93383.00
2022-08-31T17:12:24.055Z,93379.59
2022-08-31T17:14:52.593Z,93384.13
2022-08-31T17:17:22.393Z,93393.16
2022-08-31T17:19:49.575Z,93383.44
2022-08-31T17:22:24.430Z,93390.94
2022-08-31T17:24:57.302Z,93390.03
2022-08-31T17:27:25.726Z,93393.25
2022-08-31T17:29:55.783Z,93385.56
2022-08-31T17:32:25.098Z,93376.00
2022-08-31T17:34:54.273Z,93375.00
2022-08-31T17:37:32.502Z,93384.59
2022-08-31T17:39:59.793Z,93395.09
2022-08-31T17:42:27.909Z,93393.31
2022-08-31T17:44:56.301Z,93399.50
2022-08-31T17:47:25.686Z,93390.81
2022-08-31T17:49:54.029Z,93382.16
2022-08-31T17:52:21.343Z,93378.34
2022-08-31T17:54:50.638Z,93405.09
2022-08-31T17:57:19.546Z,93407.06
2022-08-31T17:59:48.945Z,93409.75
2022-08-31T18:02:31.139Z,93410.88
2022-08-31T18:04:57.951Z,93406.16
2022-08-31T18:07:24.699Z,93418.78
2022-08-31T18:09:51.482Z,93399.69
2022-08-31T18:12:21.798Z,93395.69
2022-08-31T18:14:48.623Z,93419.25
2022-08-31T18:17:18.094Z,93425.50
2022-08-31T18:19:45.246Z,93428.19
2022-08-31T18:22:14.056Z,93429.78
2022-08-31T18:24:41.523Z,93436.13
2022-08-31T18:27:10.486Z,93418.31
2022-08-31T18:29:38.830Z,93433.28
2022-08-31T18:32:07.619Z,93440.19
2022-08-31T18:34:38.836Z,93443.19
2022-08-31T18:37:06.771Z,93446.22
2022-08-31T18:39:53.374Z,93462.00
2022-08-31T18:42:39.213Z,93435.84
2022-08-31T18:45:15.387Z,93456.28
2022-08-31T18:47:42.154Z,93463.16
2022-08-31T18:50:09.405Z,93441.69
2022-08-31T18:52:40.187Z,93472.47
2022-08-31T18:55:07.502Z,93471.31
2022-08-31T18:57:34.429Z,93477.53
2022-08-31T19:00:16.401Z,93482.41
2022-08-31T19:02:43.982Z,93483.59
2022-08-31T19:05:12.269Z,93489.19
2022-08-31T19:07:41.181Z,93470.63
2022-08-31T19:10:12.834Z,93483.88
2022-08-31T19:12:42.512Z,93490.28
2022-08-31T19:15:10.830Z,93490.72
2022-08-31T19:17:39.377Z,93499.69
2022-08-31T19:20:10.209Z,93484.78
2022-08-31T19:22:37.703Z,93506.38
2022-08-31T19:25:05.278Z,93485.72
2022-08-31T19:27:33.991Z,93490.50
2022-08-31T19:30:00.884Z,93491.28
2022-08-31T19:32:27.564Z,93477.53
2022-08-31T19:34:54.253Z,93489.31
2022-08-31T19:37:21.273Z,93473.25
2022-08-31T19:39:47.844Z,93490.59
2022-08-31T19:42:16.231Z,93483.97
2022-08-31T19:44:56.003Z,93492.78
2022-08-31T19:47:38.495Z,93489.63
2022-08-31T19:50:13.519Z,93488.13
2022-08-31T19:52:41.382Z,93481.25
2022-08-31T19:55:09.254Z,93473.75
2022-08-31T19:57:37.358Z,93491.16
2022-08-31T20:00:07.325Z,93491.50
2022-08-31T20:02:34.024Z,93476.25
2022-08-31T20:05:00.675Z,93494.38
2022-08-31T20:07:28.876Z,93471.47
2022-08-31T20:09:56.311Z,93491.97
2022-08-31T20:12:22.963Z,93486.88
2022-08-31T20:14:49.661Z,93485.25
2022-08-31T20:17:16.337Z,93466.22
2022-08-31T20:19:42.975Z,93454.78
2022-08-31T20:22:09.593Z,93456.38
2022-08-31T20:24:43.159Z,93479.72
2022-08-31T20:27:13.720Z,93481.53
2022-08-31T20:29:41.030Z,93465.41
2022-08-31T20:32:08.050Z,93481.97
2022-08-31T20:34:35.362Z,93484.25
2022-08-31T20:37:02.818Z,93482.09
2022-08-31T20:39:31.631Z,93466.06
2022-08-31T20:42:00.101Z,93484.00
2022-08-31T20:44:30.462Z,93475.78
2022-08-31T20:47:22.050Z,93487.06
2022-08-31T20:49:53.673Z,93497.16
2022-08-31T20:52:22.215Z,93490.41
2022-08-31T20:54:51.889Z,93487.88
2022-08-31T20:57:29.386Z,93498.94
2022-08-31T20:59:55.978Z,93494.47
2022-08-31T21:02:22.703Z,93481.44
2022-08-31T21:04:50.109Z,93506.47
2022-08-31T21:07:18.958Z,93515.47
2022-08-31T21:09:46.694Z,93497.94
2022-08-31T21:12:18.177Z,93509.44
2022-08-31T21:14:46.268Z,93510.31
2022-08-31T21:17:14.371Z,93508.03
2022-08-31T21:19:43.374Z,93483.72
2022-08-31T21:22:13.534Z,93507.88
2022-08-31T21:24:41.870Z,93506.38
2022-08-31T21:27:13.585Z,93508.03
2022-08-31T21:29:40.603Z,93479.94
2022-08-31T21:32:10.036Z,93502.94
2022-08-31T21:34:37.394Z,93500.44
2022-08-31T21:37:04.855Z,93496.22
2022-08-31T21:39:32.387Z,93497.53
2022-08-31T21:41:59.762Z,93502.44
2022-08-31T21:44:26.703Z,93503.59
2022-08-31T21:46:53.498Z,93509.75
2022-08-31T21:49:20.537Z,93506.97
2022-08-31T21:51:51.884Z,93496.19
2022-08-31T21:54:21.607Z,93499.63
2022-08-31T21:56:55.524Z,93508.19
2022-08-31T21:59:25.134Z,93499.03
2022-08-31T22:01:57.258Z,93499.09
2022-08-31T22:04:24.234Z,93506.81
2022-08-31T22:06:51.049Z,93500.69
2022-08-31T22:09:22.317Z,93504.94
2022-08-31T22:11:51.579Z,93505.19
2022-08-31T22:14:20.614Z,93508.34
2022-08-31T22:16:48.044Z,93506.63
2022-08-31T22:19:19.918Z,93509.63
2022-08-31T22:21:49.550Z,93502.34
2022-08-31T22:24:27.110Z,93491.69
2022-08-31T22:26:56.941Z,93479.84
2022-08-31T22:29:27.145Z,93490.09
2022-08-31T22:31:57.598Z,93480.19
2022-08-31T22:34:25.414Z,93495.00
2022-08-31T22:36:54.891Z,93501.44
2022-08-31T22:39:29.610Z,93495.06
2022-08-31T22:41:58.377Z,93487.44
2022-08-31T22:44:27.907Z,93495.50
2022-08-31T22:46:57.019Z,93491.16
2022-08-31T22:49:25.750Z,93472.13
2022-08-31T22:51:54.142Z,93487.28
2022-08-31T22:54:22.424Z,93481.16
2022-08-31T22:56:49.585Z,93477.09
2022-08-31T22:59:24.546Z,93476.66
2022-08-31T23:01:54.830Z,93482.22
2022-08-31T23:04:24.978Z,93490.44
2022-08-31T23:06:52.682Z,93483.44
2022-08-31T23:09:21.877Z,93485.13
2022-08-31T23:11:51.462Z,93481.22
2022-08-31T23:14:21.022Z,93466.97
2022-08-31T23:16:57.272Z,93474.97
2022-08-31T23:19:33.175Z,93469.28
2022-08-31T23:22:00.848Z,93465.94
2022-08-31T23:24:36.950Z,93460.78
2022-08-31T23:27:09.137Z,93469.53
2022-08-31T23:29:45.557Z,93461.47
2022-08-31T23:32:13.288Z,93460.69
2022-08-31T23:34:41.605Z,93456.88
2022-08-31T23:37:10.181Z,93440.69
2022-08-31T23:39:40.576Z,93457.28
2022-08-31T23:42:09.371Z,93456.00
2022-08-31T23:44:36.136Z,93444.25
2022-08-31T23:47:02.911Z,93437.59
2022-08-31T23:49:29.604Z,93450.13
2022-08-31T23:51:56.227Z,93439.00
2022-08-31T23:54:23.268Z,93442.81
2022-08-31T23:56:56.811Z,93435.69
2022-08-31T23:59:25.155Z,93433.81
